createdAt,value
2017-02-06T00:00:46.549Z,74.71
2017-02-06T00:01:56.516Z,74.81
2017-02-06T00:03:06.862Z,75
2017-02-06T00:04:17.633Z,75.09
2017-02-06T00:05:28.379Z,75
2017-02-06T00:06:38.727Z,75.09
2017-02-06T00:07:49.475Z,75.09
2017-02-06T00:08:59.840Z,75
2017-02-06T00:10:10.642Z,74.81
2017-02-06T00:11:21.443Z,74.71
2017-02-06T00:12:31.408Z,75
2017-02-06T00:13:41.749Z,75
2017-02-06T00:14:52.508Z,75
2017-02-06T00:16:03.252Z,75.09
2017-02-06T00:17:14.057Z,74.81
2017-02-06T00:18:24.816Z,74.81
2017-02-06T00:19:35.176Z,74.9
2017-02-06T00:20:45.523Z,74.9
2017-02-06T00:21:56.279Z,74.81
2017-02-06T00:23:07.048Z,74.81
2017-02-06T00:24:17.790Z,74.71
2017-02-06T00:25:28.537Z,74.71
2017-02-06T00:26:39.324Z,74.75
2017-02-06T00:27:50.069Z,75
2017-02-06T00:29:00.470Z,74.9
2017-02-06T00:30:10.027Z,74.94
2017-02-06T00:31:19.179Z,74.94
2017-02-06T00:32:29.927Z,75.04
2017-02-06T00:33:40.714Z,74.81
2017-02-06T00:34:51.062Z,75.13
2017-02-06T00:36:01.415Z,75.04
2017-02-06T00:37:11.768Z,75.13
2017-02-06T00:38:22.515Z,74.94
2017-02-06T00:39:32.888Z,74.85
2017-02-06T00:40:43.632Z,74.37
2017-02-06T00:41:53.594Z,74.66
2017-02-06T00:43:03.957Z,74.37
2017-02-06T00:44:14.703Z,74.47
2017-02-06T00:45:24.668Z,74.66
2017-02-06T00:46:34.628Z,74.47
2017-02-06T00:47:44.199Z,74.66
2017-02-06T00:48:54.961Z,74.56
2017-02-06T00:50:04.916Z,74.56
2017-02-06T00:51:15.658Z,74.66
2017-02-06T00:52:26.010Z,74.56
2017-02-06T00:53:36.756Z,74.56
2017-02-06T00:54:47.097Z,74.47
2017-02-06T00:55:57.042Z,74.47
2017-02-06T00:57:07.805Z,74.66
2017-02-06T00:58:18.560Z,74.47
2017-02-06T00:59:28.519Z,74.47
2017-02-06T01:00:38.857Z,74.47
2017-02-06T01:01:49.608Z,74.66
2017-02-06T01:02:59.570Z,74.66
2017-02-06T01:04:09.530Z,74.66
2017-02-06T01:05:20.294Z,74.56
2017-02-06T01:06:31.034Z,74.47
2017-02-06T01:07:41.765Z,74.47
2017-02-06T01:08:52.513Z,74.47
2017-02-06T01:10:02.869Z,74.66
2017-02-06T01:11:13.618Z,74.47
2017-02-06T01:12:24.363Z,74.47
2017-02-06T01:13:35.115Z,74.56
2017-02-06T01:14:45.472Z,74.94
2017-02-06T01:15:56.230Z,74.75
2017-02-06T01:17:06.575Z,74.66
2017-02-06T01:18:16.931Z,74.47
2017-02-06T01:19:27.667Z,74.47
2017-02-06T01:20:38.018Z,74.66
2017-02-06T01:21:48.768Z,74.47
2017-02-06T01:22:59.528Z,74.47
2017-02-06T01:24:09.877Z,74.47
2017-02-06T01:25:20.264Z,74.47
2017-02-06T01:26:30.238Z,74.66
2017-02-06T01:27:40.595Z,74.75
2017-02-06T01:28:50.942Z,74.47
2017-02-06T01:30:01.323Z,74.27
2017-02-06T01:31:11.280Z,74.37
2017-02-06T01:32:21.218Z,74.37
2017-02-06T01:33:31.975Z,74.75
2017-02-06T01:34:42.313Z,74.85
2017-02-06T01:35:53.072Z,74.85
2017-02-06T01:37:03.811Z,74.75
2017-02-06T01:38:14.176Z,74.75
2017-02-06T01:39:24.518Z,75.04
2017-02-06T01:40:34.908Z,74.94
2017-02-06T01:41:45.666Z,74.47
2017-02-06T01:42:56.066Z,74.47
2017-02-06T01:44:06.015Z,74.47
2017-02-06T01:45:16.369Z,74.47
2017-02-06T01:46:27.117Z,74.37
2017-02-06T01:47:36.673Z,74.56
2017-02-06T01:48:47.437Z,74.66
2017-02-06T01:49:57.402Z,74.47
2017-02-06T01:51:06.570Z,74.75
2017-02-06T01:52:16.916Z,74.47
2017-02-06T01:53:26.875Z,74.47
2017-02-06T01:54:37.621Z,75.04
2017-02-06T01:55:48.370Z,75.04
2017-02-06T01:56:58.785Z,74.85
2017-02-06T01:58:09.148Z,74.94
2017-02-06T01:59:19.906Z,74.94
2017-02-06T02:00:29.916Z,74.75
2017-02-06T02:01:40.674Z,74.85
2017-02-06T02:02:51.075Z,75.13
2017-02-06T02:04:01.821Z,74.94
2017-02-06T02:05:12.200Z,75.32
2017-02-06T02:06:22.941Z,75.32
2017-02-06T02:07:33.679Z,75.32
2017-02-06T02:08:44.418Z,75.13
2017-02-06T02:09:54.775Z,75.13
2017-02-06T02:11:05.128Z,75.51
2017-02-06T02:12:16.123Z,75.23
2017-02-06T02:13:26.472Z,75.6
2017-02-06T02:14:37.227Z,75.51
2017-02-06T02:15:47.574Z,75.32
2017-02-06T02:16:57.937Z,75.32
2017-02-06T02:18:07.503Z,75.32
2017-02-06T02:19:17.840Z,75.32
2017-02-06T02:20:28.589Z,75.51
2017-02-06T02:21:38.543Z,75.6
2017-02-06T02:22:48.511Z,75.42
2017-02-06T02:23:58.863Z,75.42
2017-02-06T02:25:09.458Z,75.23
2017-02-06T02:26:19.444Z,75.38
2017-02-06T02:27:30.185Z,75.67
2017-02-06T02:28:40.926Z,75.7
2017-02-06T02:29:50.889Z,75.32
2017-02-06T02:31:00.856Z,75.76
2017-02-06T02:32:10.860Z,75.19
2017-02-06T02:33:21.638Z,75.09
2017-02-06T02:34:31.996Z,75.28
2017-02-06T02:35:42.357Z,75.09
2017-02-06T02:36:52.700Z,75.09
2017-02-06T02:38:03.444Z,75.09
2017-02-06T02:39:14.183Z,75.19
2017-02-06T02:40:24.933Z,75.67
2017-02-06T02:41:35.677Z,75.09
2017-02-06T02:42:46.423Z,75.28
2017-02-06T02:43:56.780Z,75.28
2017-02-06T02:45:07.526Z,75.47
2017-02-06T02:46:17.493Z,75.47
2017-02-06T02:47:28.224Z,75.28
2017-02-06T02:48:38.588Z,75.28
2017-02-06T02:49:48.584Z,75.38
2017-02-06T02:50:59.324Z,75.28
2017-02-06T02:52:09.281Z,75.28
2017-02-06T02:53:19.629Z,75.28
2017-02-06T02:54:29.971Z,75.28
2017-02-06T02:55:40.721Z,75.38
2017-02-06T02:56:51.069Z,75.19
2017-02-06T02:58:01.803Z,75.09
2017-02-06T02:59:12.153Z,75.28
2017-02-06T03:00:22.513Z,75.28
2017-02-06T03:01:33.254Z,75.47
2017-02-06T03:33:07.180Z,72
2017-02-06T03:34:17.914Z,72.38
2017-02-06T03:35:28.285Z,73.61
2017-02-06T03:36:38.643Z,75.23
2017-02-06T03:37:48.995Z,75.32
2017-02-06T03:38:59.738Z,76.17
2017-02-06T03:40:10.096Z,76.74
2017-02-06T03:41:20.849Z,76.74
2017-02-06T03:42:31.196Z,76.59
2017-02-06T03:43:40.758Z,76.78
2017-02-06T03:44:51.495Z,76.97
2017-02-06T03:46:01.446Z,76.87
2017-02-06T03:47:12.248Z,76.5
2017-02-06T03:48:22.991Z,76.68
2017-02-06T03:49:33.738Z,77.01
2017-02-06T03:50:44.093Z,76.82
2017-02-06T03:51:54.838Z,76.54
2017-02-06T03:53:05.630Z,76.34
2017-02-06T03:54:15.979Z,76.63
2017-02-06T03:55:26.324Z,76.34
2017-02-06T03:56:37.129Z,76.63
2017-02-06T03:57:47.479Z,75.91
2017-02-06T03:58:58.274Z,76.29
2017-02-06T04:00:08.623Z,75.81
2017-02-06T04:01:19.378Z,75.81
2017-02-06T04:02:29.325Z,76.2
2017-02-06T04:03:39.677Z,76.1
2017-02-06T04:04:49.641Z,76.1
2017-02-06T04:05:59.600Z,76.01
2017-02-06T04:07:10.350Z,76.1
2017-02-06T04:08:21.144Z,75.53
2017-02-06T04:09:31.505Z,75.53
2017-02-06T04:10:41.877Z,75.34
2017-02-06T04:11:52.623Z,75.53
2017-02-06T04:13:02.980Z,75.34
2017-02-06T04:14:13.726Z,75.24
2017-02-06T04:15:24.465Z,75.34
2017-02-06T04:16:34.811Z,75.34
2017-02-06T04:17:45.547Z,75.43
2017-02-06T04:18:55.915Z,75.53
2017-02-06T04:20:06.660Z,75.43
2017-02-06T04:21:17.007Z,75.53
2017-02-06T04:22:27.765Z,75.43
2017-02-06T04:23:38.507Z,75.53
2017-02-06T04:24:49.256Z,75.91
2017-02-06T04:25:59.630Z,75.81
2017-02-06T04:27:10.377Z,75.67
2017-02-06T04:28:20.734Z,75.62
2017-02-06T04:29:31.510Z,75.53
2017-02-06T04:30:42.246Z,75.76
2017-02-06T04:31:51.808Z,75.81
2017-02-06T04:33:02.551Z,75.62
2017-02-06T04:34:12.912Z,75.53
2017-02-06T04:35:23.683Z,75.53
2017-02-06T04:36:34.053Z,75.62
2017-02-06T04:37:44.415Z,75.43
2017-02-06T04:38:55.163Z,75.43
2017-02-06T04:40:05.528Z,75.43
2017-02-06T04:41:16.276Z,75.43
2017-02-06T04:42:26.233Z,75.53
2017-02-06T04:43:36.237Z,75.43
2017-02-06T04:44:46.597Z,75.34
2017-02-06T04:45:57.355Z,75.43
2017-02-06T04:47:08.089Z,75.53
2017-02-06T04:48:18.447Z,75.24
2017-02-06T04:49:28.794Z,75.43
2017-02-06T04:50:39.147Z,75.81
2017-02-06T04:51:49.891Z,75.62
2017-02-06T04:53:00.241Z,75.53
2017-02-06T04:54:10.586Z,75.53
2017-02-06T04:55:20.937Z,75.62
2017-02-06T04:56:31.681Z,75.62
2017-02-06T04:57:42.039Z,75.72
2017-02-06T04:58:52.391Z,75.72
2017-02-06T05:00:03.139Z,75.81
2017-02-06T05:01:13.487Z,75.53
2017-02-06T05:02:24.242Z,75.62
2017-02-06T05:03:34.589Z,75.72
2017-02-06T05:04:44.547Z,75.53
2017-02-06T05:05:55.303Z,75.72
2017-02-06T05:07:05.672Z,75.72
2017-02-06T05:08:16.425Z,75.62
2017-02-06T05:09:26.779Z,75.62
2017-02-06T05:10:37.532Z,75.62
2017-02-06T05:11:48.326Z,75.62
2017-02-06T05:12:59.070Z,75.72
2017-02-06T05:14:09.808Z,75.67
2017-02-06T05:15:20.548Z,75.72
2017-02-06T05:16:30.903Z,75.81
2017-02-06T05:17:41.643Z,75.34
2017-02-06T05:18:52.391Z,75.43
2017-02-06T05:20:03.146Z,75.43
2017-02-06T05:21:13.112Z,75.34
2017-02-06T05:22:23.847Z,75.53
2017-02-06T05:23:34.203Z,75.34
2017-02-06T05:24:44.941Z,75.43
2017-02-06T05:25:55.297Z,75.43
2017-02-06T05:27:06.039Z,75.43
2017-02-06T05:28:16.007Z,75.43
2017-02-06T05:29:26.360Z,75.43
2017-02-06T05:30:37.105Z,75.43
2017-02-06T05:31:47.853Z,75.43
2017-02-06T05:32:57.815Z,75.62
2017-02-06T05:34:08.557Z,75.62
2017-02-06T05:35:18.908Z,75.67
2017-02-06T05:36:28.873Z,75.76
2017-02-06T05:37:39.619Z,75.67
2017-02-06T05:38:49.579Z,75.47
2017-02-06T05:39:59.934Z,75.76
2017-02-06T05:41:10.671Z,75.09
2017-02-06T05:42:20.627Z,75.28
2017-02-06T05:43:31.373Z,75.67
2017-02-06T05:44:41.741Z,75.85
2017-02-06T05:45:51.703Z,75.67
2017-02-06T05:47:02.448Z,75.62
2017-02-06T05:48:13.206Z,75.43
2017-02-06T05:49:23.940Z,75.34
2017-02-06T05:50:33.901Z,75.34
2017-02-06T05:51:44.247Z,75.62
2017-02-06T05:52:54.998Z,75.34
2017-02-06T05:54:05.359Z,75.34
2017-02-06T05:55:15.741Z,75.24
2017-02-06T05:56:26.109Z,75.53
2017-02-06T05:57:36.455Z,75.24
2017-02-06T05:58:47.212Z,75.34
2017-02-06T05:59:57.940Z,75.47
2017-02-06T06:01:08.294Z,75.53
2017-02-06T06:02:18.244Z,75.43
2017-02-06T06:03:28.205Z,75.53
2017-02-06T06:04:38.958Z,75.62
2017-02-06T06:05:49.330Z,75.34
2017-02-06T06:06:59.302Z,75.43
2017-02-06T06:08:09.672Z,75.62
2017-02-06T06:09:19.230Z,75.72
2017-02-06T06:10:29.571Z,75.81
2017-02-06T06:11:40.331Z,75.72
2017-02-06T06:12:50.680Z,75.62
2017-02-06T06:14:01.421Z,75.72
2017-02-06T06:15:11.776Z,76.1
2017-02-06T06:16:22.535Z,76.1
2017-02-06T06:17:32.483Z,76.1
2017-02-06T06:18:42.442Z,75.91
2017-02-06T06:19:52.792Z,76.01
2017-02-06T06:21:03.147Z,75.62
2017-02-06T06:22:13.494Z,76.01
2017-02-06T06:23:24.242Z,75.91
2017-02-06T06:24:34.996Z,75.91
2017-02-06T06:25:45.356Z,75.91
2017-02-06T06:26:56.116Z,75.62
2017-02-06T06:28:06.866Z,76.2
2017-02-06T06:29:17.654Z,76.01
2017-02-06T06:30:28.009Z,75.91
2017-02-06T06:31:38.357Z,75.91
2017-02-06T06:32:48.706Z,75.81
2017-02-06T06:33:59.460Z,75.91
2017-02-06T06:35:09.795Z,75.43
2017-02-06T06:36:20.147Z,75.24
2017-02-06T06:37:30.892Z,75.43
2017-02-06T06:38:41.637Z,75.34
2017-02-06T06:39:51.203Z,75.53
2017-02-06T06:41:01.548Z,75.53
2017-02-06T06:42:11.497Z,75.34
2017-02-06T06:43:21.445Z,75.43
2017-02-06T06:44:31.629Z,75.34
2017-02-06T06:45:42.388Z,75.43
2017-02-06T06:46:52.770Z,75.24
2017-02-06T06:48:03.516Z,75.43
2017-02-06T06:49:14.259Z,75.62
2017-02-06T06:50:24.609Z,75.72
2017-02-06T06:51:34.957Z,75.34
2017-02-06T06:52:44.923Z,75.34
2017-02-06T06:53:54.871Z,75.62
2017-02-06T06:55:05.662Z,75.34
2017-02-06T06:56:16.399Z,75.43
2017-02-06T06:57:26.365Z,75.34
2017-02-06T06:58:36.714Z,75.34
2017-02-06T06:59:47.473Z,75.43
2017-02-06T07:00:58.229Z,75.81
2017-02-06T07:02:08.976Z,75.34
2017-02-06T07:03:19.318Z,75.43
2017-02-06T07:04:29.670Z,75.81
2017-02-06T07:05:40.410Z,75.53
2017-02-06T07:06:49.973Z,75.53
2017-02-06T07:08:00.330Z,75.62
2017-02-06T07:09:10.688Z,75.53
2017-02-06T07:10:21.049Z,75.72
2017-02-06T07:11:31.397Z,75.72
2017-02-06T07:12:41.772Z,75.09
2017-02-06T07:13:52.132Z,75.34
2017-02-06T07:15:02.897Z,75.24
2017-02-06T07:16:13.252Z,75.43
2017-02-06T07:17:23.603Z,75.76
2017-02-06T07:18:33.568Z,75.43
2017-02-06T07:19:43.922Z,75.47
2017-02-06T07:20:54.665Z,75.72
2017-02-06T07:22:05.408Z,75.76
2017-02-06T07:23:16.157Z,75.67
2017-02-06T07:24:26.108Z,75.09
2017-02-06T07:25:36.074Z,75.28
2017-02-06T07:26:46.825Z,75.28
2017-02-06T07:27:57.575Z,75.47
2017-02-06T07:29:08.324Z,75.28
2017-02-06T07:30:19.072Z,75.47
2017-02-06T07:31:29.427Z,75.09
2017-02-06T07:32:39.786Z,75.19
2017-02-06T07:33:50.133Z,75.28
2017-02-06T07:35:00.089Z,75.28
2017-02-06T07:36:10.835Z,75.28
2017-02-06T07:37:20.648Z,75
2017-02-06T07:38:31.200Z,75.09
2017-02-06T07:39:41.965Z,75.28
2017-02-06T07:40:51.927Z,75.28
2017-02-06T07:42:01.876Z,75.47
2017-02-06T07:43:12.632Z,75.67
2017-02-06T07:44:23.369Z,75.47
2017-02-06T07:45:33.771Z,75.28
2017-02-06T07:46:44.117Z,75.19
2017-02-06T07:47:54.464Z,75.28
2017-02-06T07:49:05.218Z,75.19
2017-02-06T07:50:15.954Z,75.38
2017-02-06T07:51:25.917Z,75.76
2017-02-06T07:52:36.653Z,75.67
2017-02-06T07:53:47.023Z,75.85
2017-02-06T07:54:57.373Z,75.76
2017-02-06T07:56:07.724Z,75.67
2017-02-06T07:57:18.072Z,75.67
2017-02-06T07:58:28.051Z,75.76
2017-02-06T07:59:38.788Z,75.19
2017-02-06T08:00:49.173Z,75.38
2017-02-06T08:01:59.535Z,75.47
2017-02-06T08:03:09.895Z,75.19
2017-02-06T08:04:20.634Z,75.57
2017-02-06T08:05:31.384Z,75.19
2017-02-06T08:06:42.366Z,75.19
2017-02-06T08:07:53.108Z,74.85
2017-02-06T08:09:03.890Z,75.23
2017-02-06T08:10:14.271Z,75.04
2017-02-06T08:11:24.616Z,75.51
2017-02-06T08:12:35.363Z,74.75
2017-02-06T08:13:45.977Z,74.94
2017-02-06T08:14:56.743Z,74.85
2017-02-06T08:16:07.498Z,75.04
2017-02-06T08:17:17.856Z,75.13
2017-02-06T08:18:28.603Z,74.94
2017-02-06T08:19:38.961Z,74.47
2017-02-06T08:20:49.716Z,74.47
2017-02-06T08:21:59.672Z,74.47
2017-02-06T08:23:09.242Z,74.56
2017-02-06T08:24:19.605Z,74.12
2017-02-06T08:25:29.565Z,73.93
2017-02-06T08:26:39.921Z,73.65
2017-02-06T08:27:50.274Z,74.03
2017-02-06T08:29:00.623Z,74.03
2017-02-06T08:30:10.592Z,73.84
2017-02-06T08:31:20.949Z,73.93
2017-02-06T08:32:31.683Z,74.07
2017-02-06T08:33:42.047Z,73.84
2017-02-06T08:34:53.106Z,73.93
2017-02-06T08:36:03.851Z,73.88
2017-02-06T08:37:13.812Z,73.84
2017-02-06T08:38:24.562Z,73.55
2017-02-06T08:39:34.544Z,73.84
2017-02-06T08:40:44.901Z,74.03
2017-02-06T08:41:55.274Z,73.97
2017-02-06T08:43:06.015Z,73.88
2017-02-06T08:44:15.977Z,73.69
2017-02-06T08:45:26.333Z,73.69
2017-02-06T08:46:37.079Z,73.88
2017-02-06T08:47:47.826Z,74.07
2017-02-06T08:48:58.174Z,73.97
2017-02-06T08:50:08.572Z,73.88
2017-02-06T08:51:19.331Z,74.54
2017-02-06T08:52:30.085Z,74.73
2017-02-06T08:53:40.435Z,74.41
2017-02-06T08:54:50.790Z,74.92
2017-02-06T08:56:01.553Z,74.98
2017-02-06T08:57:12.299Z,75.17
2017-02-06T08:58:22.655Z,75.07
2017-02-06T08:59:33.011Z,74.88
2017-02-06T09:00:42.959Z,75.17
2017-02-06T09:01:53.750Z,75.07
2017-02-06T09:03:03.722Z,75.07
2017-02-06T09:04:14.089Z,75.17
2017-02-06T09:05:24.051Z,75.55
2017-02-06T09:06:34.800Z,75.36
2017-02-06T09:07:45.158Z,75.36
2017-02-06T09:08:55.123Z,75.55
2017-02-06T09:10:05.478Z,74.79
2017-02-06T09:11:15.842Z,75.07
2017-02-06T09:12:26.606Z,75.07
2017-02-06T09:13:37.353Z,75.07
2017-02-06T09:14:47.748Z,75.17
2017-02-06T09:15:58.482Z,74.6
2017-02-06T09:17:08.436Z,74.69
2017-02-06T09:18:19.182Z,74.69
2017-02-06T09:19:29.938Z,74.69
2017-02-06T09:20:40.673Z,74.79
2017-02-06T09:21:50.644Z,74.6
2017-02-06T09:23:01.015Z,74.69
2017-02-06T09:24:10.983Z,74.69
2017-02-06T09:25:21.346Z,74.6
2017-02-06T09:26:32.091Z,74.79
2017-02-06T09:27:42.038Z,74.69
2017-02-06T09:28:52.398Z,74.79
2017-02-06T09:30:02.748Z,74.69
2017-02-06T09:31:13.489Z,74.79
2017-02-06T09:32:23.445Z,74.69
2017-02-06T09:33:33.438Z,74.31
2017-02-06T09:34:43.408Z,74.69
2017-02-06T09:35:53.757Z,74.51
2017-02-06T09:37:04.106Z,74.98
2017-02-06T09:38:14.867Z,74.79
2017-02-06T09:39:25.243Z,75.17
2017-02-06T09:40:35.198Z,74.88
2017-02-06T09:41:45.559Z,74.79
2017-02-06T09:42:55.916Z,75.36
2017-02-06T09:44:06.673Z,74.98
2017-02-06T09:45:16.626Z,75.17
2017-02-06T09:46:27.372Z,75.07
2017-02-06T09:47:37.336Z,75.64
2017-02-06T09:48:48.085Z,75.07
2017-02-06T09:49:58.033Z,75.07
2017-02-06T09:51:08.784Z,75.26
2017-02-06T09:52:19.148Z,75.55
2017-02-06T09:53:29.700Z,74.98
2017-02-06T09:54:40.050Z,75.17
2017-02-06T09:55:50.431Z,74.79
2017-02-06T09:57:01.178Z,74.6
2017-02-06T09:58:11.147Z,74.79
2017-02-06T09:59:21.513Z,74.51
2017-02-06T10:00:32.305Z,74.69
2017-02-06T10:01:42.667Z,74.51
2017-02-06T10:02:53.436Z,74.63
2017-02-06T10:04:04.200Z,74.63
2017-02-06T10:05:14.554Z,73.97
2017-02-06T10:06:25.289Z,73.97
2017-02-06T10:07:36.039Z,73.63
2017-02-06T10:08:46.415Z,73.91
2017-02-06T10:09:57.170Z,73.44
2017-02-06T10:11:07.942Z,72.86
2017-02-06T10:12:18.361Z,72.96
2017-02-06T10:13:28.723Z,73.19
2017-02-06T10:14:39.066Z,73.1
2017-02-06T10:15:49.029Z,73.1
2017-02-06T10:16:59.828Z,73.28
2017-02-06T10:18:10.562Z,73
2017-02-06T10:19:21.302Z,72.9
2017-02-06T10:20:32.103Z,72.81
2017-02-06T10:21:42.128Z,73.57
2017-02-06T10:22:52.520Z,73.38
2017-02-06T10:24:02.889Z,73.85
2017-02-06T10:25:13.239Z,74.04
2017-02-06T10:26:23.983Z,74.04
2017-02-06T10:27:33.955Z,74.04
2017-02-06T10:28:44.697Z,73.85
2017-02-06T10:29:55.462Z,73.85
2017-02-06T10:31:06.219Z,73.76
2017-02-06T10:32:16.177Z,73.95
2017-02-06T10:33:26.161Z,74.14
2017-02-06T10:34:36.959Z,73.66
2017-02-06T10:35:47.315Z,74.04
2017-02-06T10:36:57.263Z,74.04
2017-02-06T10:38:07.230Z,74.8
2017-02-06T10:39:17.188Z,74.52
2017-02-06T10:40:27.942Z,74.14
2017-02-06T10:41:38.915Z,73.76
2017-02-06T10:42:49.669Z,73.57
2017-02-06T10:44:00.430Z,73.95
2017-02-06T10:45:10.400Z,73.95
2017-02-06T10:46:20.354Z,73.95
2017-02-06T10:47:30.761Z,73.95
2017-02-06T10:48:41.511Z,73.95
2017-02-06T10:49:52.261Z,74.04
2017-02-06T10:51:02.448Z,73.85
2017-02-06T10:52:12.804Z,73.85
2017-02-06T10:53:23.568Z,74.04
2017-02-06T10:54:33.924Z,74.14
2017-02-06T10:55:44.668Z,74.14
2017-02-06T10:56:55.415Z,73.95
2017-02-06T10:58:06.183Z,73.95
2017-02-06T10:59:16.945Z,73.95
2017-02-06T11:00:27.697Z,73.85
2017-02-06T11:01:37.668Z,73.66
2017-02-06T11:02:48.026Z,74.24
2017-02-06T11:03:58.763Z,73.95
2017-02-06T11:05:09.128Z,74.14
2017-02-06T11:06:19.484Z,74.04
2017-02-06T11:07:29.062Z,73.85
2017-02-06T11:08:39.438Z,73.66
2017-02-06T11:09:50.179Z,73.95
2017-02-06T11:11:00.143Z,73.76
2017-02-06T11:12:10.510Z,73.76
2017-02-06T11:13:21.256Z,73.95
2017-02-06T11:14:31.612Z,73.95
2017-02-06T11:15:42.345Z,73.66
2017-02-06T11:16:53.100Z,73.85
2017-02-06T11:18:03.856Z,73.76
2017-02-06T11:19:13.804Z,74.14
2017-02-06T11:20:24.150Z,73.95
2017-02-06T11:21:34.520Z,73.85
2017-02-06T11:22:45.290Z,73.95
2017-02-06T11:23:56.047Z,73.85
2017-02-06T11:25:06.787Z,74.04
2017-02-06T11:26:17.159Z,74.04
2017-02-06T11:27:27.912Z,74.8
2017-02-06T11:28:38.263Z,74.77
2017-02-06T11:29:49.034Z,74.48
2017-02-06T11:30:59.382Z,74.58
2017-02-06T11:32:10.128Z,74.58
2017-02-06T11:33:20.530Z,74.58
2017-02-06T11:34:31.276Z,74.58
2017-02-06T11:35:42.033Z,74.77
2017-02-06T11:36:52.787Z,74.67
2017-02-06T11:38:02.734Z,74.39
2017-02-06T11:39:13.505Z,74.67
2017-02-06T11:40:24.259Z,74.67
2017-02-06T11:41:35.000Z,74.58
2017-02-06T11:42:45.754Z,74.1
2017-02-06T11:43:56.113Z,74.96
2017-02-06T11:45:06.480Z,74.77
2017-02-06T11:46:16.445Z,74.39
2017-02-06T11:47:26.418Z,74.58
2017-02-06T11:48:36.394Z,74.77
2017-02-06T11:49:46.742Z,74.48
2017-02-06T11:50:57.099Z,74.48
2017-02-06T11:52:07.448Z,74.67
2017-02-06T11:53:17.623Z,74.1
2017-02-06T11:54:27.990Z,73.63
2017-02-06T11:55:37.948Z,73.63
2017-02-06T11:56:47.920Z,73.91
2017-02-06T11:57:58.291Z,73.82
2017-02-06T11:59:08.644Z,74.01
2017-02-06T12:00:19.415Z,73.82
2017-02-06T12:01:28.988Z,74.1
2017-02-06T12:02:39.742Z,74.1
2017-02-06T12:03:50.486Z,73.72
2017-02-06T12:05:01.236Z,73.91
2017-02-06T12:06:11.602Z,74.48
2017-02-06T12:07:22.356Z,74.58
2017-02-06T12:08:33.136Z,74.67
2017-02-06T12:09:43.483Z,74.87
2017-02-06T12:10:53.827Z,75.05
2017-02-06T12:12:04.582Z,74.92
2017-02-06T12:13:15.370Z,75.4
2017-02-06T12:14:25.320Z,75.21
2017-02-06T12:15:35.277Z,75.3
2017-02-06T12:16:45.622Z,75.4
2017-02-06T12:17:56.346Z,74.92
2017-02-06T12:19:06.300Z,74.82
2017-02-06T12:20:17.039Z,75.3
2017-02-06T12:21:26.599Z,74.92
2017-02-06T12:22:36.957Z,74.82
2017-02-06T12:23:47.721Z,74.73
2017-02-06T12:24:58.479Z,74.63
2017-02-06T12:26:09.235Z,74.73
2017-02-06T12:27:20.015Z,74.44
2017-02-06T12:28:29.583Z,74.73
2017-02-06T12:29:39.947Z,73.88
2017-02-06T12:30:50.727Z,74.01
2017-02-06T12:32:01.088Z,73.63
2017-02-06T12:33:11.831Z,73.88
2017-02-06T12:34:21.783Z,73.59
2017-02-06T12:35:31.752Z,73.82
2017-02-06T12:36:42.121Z,74.92
2017-02-06T12:37:52.479Z,73.88
2017-02-06T12:39:03.224Z,74.92
2017-02-06T12:40:13.984Z,74.73
2017-02-06T12:41:24.351Z,74.54
2017-02-06T12:42:34.698Z,74.26
2017-02-06T12:43:44.670Z,74.73
2017-02-06T12:44:54.238Z,74.82
2017-02-06T12:46:04.219Z,74.63
2017-02-06T12:47:14.967Z,74.63
2017-02-06T12:48:25.306Z,74.63
2017-02-06T12:49:35.663Z,74.73
2017-02-06T12:50:45.623Z,74.44
2017-02-06T12:51:55.988Z,73.88
2017-02-06T12:53:06.784Z,73.97
2017-02-06T12:54:17.134Z,73.88
2017-02-06T12:55:27.102Z,73.88
2017-02-06T12:56:37.865Z,73.97
2017-02-06T12:57:48.230Z,73.69
2017-02-06T12:58:58.210Z,73.69
2017-02-06T13:00:08.171Z,73.78
2017-02-06T13:01:18.757Z,74.07
2017-02-06T13:02:29.539Z,74.16
2017-02-06T13:03:39.495Z,73.97
2017-02-06T13:04:49.868Z,74.07
2017-02-06T13:06:00.624Z,73.97
2017-02-06T13:07:11.376Z,73.69
2017-02-06T13:08:21.336Z,73.97
2017-02-06T13:09:31.693Z,73.88
2017-02-06T13:10:42.463Z,73.78
2017-02-06T13:11:53.221Z,74.16
2017-02-06T13:13:03.221Z,73.78
2017-02-06T13:14:13.581Z,73.88
2017-02-06T13:15:23.941Z,73.97
2017-02-06T13:16:34.330Z,74.44
2017-02-06T13:17:45.101Z,74.73
2017-02-06T13:18:55.859Z,74.35
2017-02-06T13:20:06.601Z,74.54
2017-02-06T13:21:17.354Z,74.41
2017-02-06T13:22:27.726Z,74.44
2017-02-06T13:23:38.478Z,74.69
2017-02-06T13:24:49.221Z,74.69
2017-02-06T13:25:59.177Z,74.41
2017-02-06T13:27:09.524Z,74.79
2017-02-06T13:28:19.881Z,75.07
2017-02-06T13:29:30.633Z,74.98
2017-02-06T13:30:41.374Z,75.07
2017-02-06T13:31:52.115Z,74.79
2017-02-06T13:33:02.498Z,74.98
2017-02-06T13:34:13.254Z,74.69
2017-02-06T13:35:23.601Z,74.79
2017-02-06T13:36:34.352Z,75.32
2017-02-06T13:37:44.701Z,74.75
2017-02-06T13:38:55.050Z,74.85
2017-02-06T13:40:05.412Z,74.85
2017-02-06T13:41:15.759Z,74.75
2017-02-06T13:42:26.113Z,74.85
2017-02-06T13:43:36.082Z,74.75
2017-02-06T13:44:46.028Z,75.23
2017-02-06T13:45:56.388Z,74.75
2017-02-06T13:47:06.345Z,74.75
2017-02-06T13:48:17.114Z,74.75
2017-02-06T13:49:27.878Z,74.94
2017-02-06T13:50:37.856Z,75.13
2017-02-06T13:51:48.595Z,75.04
2017-02-06T13:52:59.007Z,75.04
2017-02-06T13:54:09.357Z,75.04
2017-02-06T13:55:19.312Z,75.13
2017-02-06T13:56:30.074Z,74.94
2017-02-06T13:57:40.039Z,75.04
2017-02-06T13:58:50.784Z,75.04
2017-02-06T14:00:01.530Z,75.13
2017-02-06T14:01:11.921Z,75.13
2017-02-06T14:02:22.672Z,74.85
2017-02-06T14:03:33.424Z,74.85
2017-02-06T14:04:43.792Z,75.04
2017-02-06T14:05:53.768Z,74.85
2017-02-06T14:07:04.512Z,74.75
2017-02-06T14:08:15.267Z,74.37
2017-02-06T14:09:25.608Z,74.66
2017-02-06T14:10:36.378Z,74.56
2017-02-06T14:11:46.341Z,74.66
2017-02-06T14:12:57.126Z,74.66
2017-02-06T14:14:07.081Z,74.66
2017-02-06T14:15:17.847Z,74.66
2017-02-06T14:16:28.210Z,74.66
2017-02-06T14:17:38.570Z,74.66
2017-02-06T14:18:48.929Z,74.75
2017-02-06T14:19:59.680Z,74.66
2017-02-06T14:21:10.441Z,74.66
2017-02-06T14:22:20.783Z,74.66
2017-02-06T14:23:30.755Z,74.56
2017-02-06T14:24:40.307Z,74.66
2017-02-06T14:25:51.084Z,74.47
2017-02-06T14:27:01.841Z,74.75
2017-02-06T14:28:12.197Z,74.85
2017-02-06T14:29:22.966Z,74.85
2017-02-06T14:30:32.944Z,75.04
2017-02-06T14:31:42.892Z,74.94
2017-02-06T14:32:53.249Z,74.94
2017-02-06T14:34:03.610Z,74.71
2017-02-06T14:35:13.958Z,74.71
2017-02-06T14:36:24.752Z,74.75
2017-02-06T14:37:34.710Z,74.75
2017-02-06T14:38:45.061Z,74.71
2017-02-06T14:39:55.411Z,75.28
2017-02-06T14:41:05.807Z,74.71
2017-02-06T14:42:16.554Z,75
2017-02-06T14:43:27.314Z,75.47
2017-02-06T14:44:37.675Z,75.38
2017-02-06T14:45:48.521Z,75
2017-02-06T14:46:58.891Z,75.28
2017-02-06T14:48:08.846Z,75.19
2017-02-06T14:49:19.640Z,75.38
2017-02-06T14:50:30.387Z,74.81
2017-02-06T14:51:40.741Z,74.81
2017-02-06T14:52:51.487Z,74.81
2017-02-06T14:54:02.262Z,74.81
2017-02-06T14:55:13.019Z,75.47
2017-02-06T14:56:22.967Z,75
2017-02-06T14:57:33.324Z,74.9
2017-02-06T14:59:53.146Z,75
2017-02-06T15:01:03.901Z,75.28
2017-02-06T15:02:13.892Z,75.28
2017-02-06T15:03:24.259Z,75.09
2017-02-06T15:04:33.820Z,74.81
2017-02-06T15:05:44.579Z,74.71
2017-02-06T15:06:54.130Z,75.19
2017-02-06T15:08:04.878Z,74.71
2017-02-06T15:09:15.649Z,74.71
2017-02-06T15:10:26.046Z,74.81
2017-02-06T15:11:36.392Z,75
2017-02-06T15:12:46.759Z,75.47
2017-02-06T15:13:57.109Z,75.28
2017-02-06T15:15:07.468Z,75.28
2017-02-06T15:16:17.814Z,75
2017-02-06T15:17:28.172Z,75.09
2017-02-06T15:18:38.532Z,75.09
2017-02-06T15:19:48.506Z,74.81
2017-02-06T15:20:59.257Z,75.28
2017-02-06T15:22:09.611Z,75.28
2017-02-06T15:23:20.393Z,75.19
2017-02-06T15:24:30.383Z,75
2017-02-06T15:25:40.726Z,75
2017-02-06T15:26:51.479Z,75.09
2017-02-06T15:28:01.844Z,75.09
2017-02-06T15:29:12.587Z,74.9
2017-02-06T15:30:22.935Z,75
2017-02-06T15:31:33.918Z,75.09
2017-02-06T15:32:44.271Z,75
2017-02-06T15:33:54.637Z,75.09
2017-02-06T15:35:04.992Z,75.09
2017-02-06T15:36:15.753Z,75.19
2017-02-06T15:37:26.538Z,75.19
2017-02-06T15:38:37.533Z,75.09
2017-02-06T15:39:48.293Z,74.87
2017-02-06T15:40:58.678Z,74.87
2017-02-06T15:42:09.038Z,75.05